createdAt,value
2022-09-04T00:01:59.047Z,4.30
2022-09-04T00:04:35.566Z,3.90
2022-09-04T00:07:20.614Z,4.00
2022-09-04T00:10:11.579Z,3.90
2022-09-04T00:13:11.000Z,4.50
2022-09-04T00:16:10.867Z,3.80
2022-09-04T00:19:04.564Z,4.50
2022-09-04T00:22:14.233Z,4.70
2022-09-04T00:24:54.067Z,4.10
2022-09-04T00:27:29.745Z,4.60
2022-09-04T00:30:11.734Z,4.30
2022-09-04T00:33:17.276Z,4.50
2022-09-04T00:35:58.970Z,4.70
2022-09-04T00:38:54.064Z,4.50
2022-09-04T00:41:52.842Z,4.40
2022-09-04T00:44:35.993Z,4.30
2022-09-04T00:47:30.333Z,4.00
2022-09-04T00:50:16.782Z,3.90
2022-09-04T00:54:03.065Z,4.20
2022-09-04T00:56:56.309Z,4.60
2022-09-04T01:00:16.038Z,4.00
2022-09-04T01:03:31.259Z,4.40
2022-09-04T01:06:21.417Z,4.40
2022-09-04T01:09:27.065Z,4.20
2022-09-04T01:12:46.854Z,4.10
2022-09-04T01:15:55.808Z,4.10
2022-09-04T01:18:40.963Z,3.90
2022-09-04T01:21:33.910Z,4.50
2022-09-04T01:24:27.251Z,4.00
2022-09-04T01:27:24.388Z,4.40
2022-09-04T01:30:06.157Z,4.10
2022-09-04T01:33:12.264Z,4.50
2022-09-04T01:35:59.999Z,4.10
2022-09-04T01:38:34.646Z,4.10
2022-09-04T01:41:15.207Z,3.90
2022-09-04T01:43:43.889Z,4.50
2022-09-04T01:46:50.473Z,3.90
2022-09-04T01:49:45.757Z,3.60
2022-09-04T01:52:36.942Z,4.90
2022-09-04T01:55:11.517Z,4.10
2022-09-04T01:58:12.064Z,4.30
2022-09-04T02:01:50.121Z,4.60
2022-09-04T02:04:53.868Z,4.40
2022-09-04T02:07:32.482Z,4.30
2022-09-04T02:10:34.980Z,4.00
2022-09-04T02:13:29.639Z,4.70
2022-09-04T02:16:38.955Z,4.30
2022-09-04T02:19:28.716Z,4.70
2022-09-04T02:22:34.111Z,4.20
2022-09-04T02:25:02.720Z,4.70
2022-09-04T02:28:08.519Z,4.60
2022-09-04T02:30:56.808Z,5.10
2022-09-04T02:33:52.951Z,4.30
2022-09-04T02:36:35.590Z,4.60
2022-09-04T02:42:18.384Z,4.80
2022-09-04T02:45:08.218Z,4.40
2022-09-04T02:47:53.655Z,4.50
2022-09-04T02:50:48.224Z,5.00
2022-09-04T02:54:09.083Z,4.80
2022-09-04T02:57:12.179Z,5.20
2022-09-04T03:03:03.891Z,5.70
2022-09-04T03:05:42.411Z,5.10
2022-09-04T03:08:36.283Z,4.90
2022-09-04T03:11:23.641Z,4.90
2022-09-04T03:14:32.570Z,4.80
2022-09-04T03:17:12.275Z,5.80
2022-09-04T03:20:00.418Z,5.20
2022-09-04T03:22:43.597Z,4.50
2022-09-04T03:25:42.701Z,5.20
2022-09-04T03:28:27.513Z,4.40
2022-09-04T03:30:58.561Z,5.40
2022-09-04T03:33:44.122Z,5.00
2022-09-04T03:36:25.706Z,4.20
2022-09-04T03:39:23.503Z,4.50
2022-09-04T03:42:29.188Z,4.90
2022-09-04T03:45:48.113Z,4.60
2022-09-04T03:48:53.796Z,4.30
2022-09-04T03:51:49.664Z,4.60
2022-09-04T03:55:03.819Z,4.50
2022-09-04T03:57:55.379Z,4.10
2022-09-04T04:00:24.960Z,4.20
2022-09-04T04:03:29.288Z,4.80
2022-09-04T04:06:41.991Z,4.70
2022-09-04T04:09:19.352Z,4.80
2022-09-04T04:12:07.257Z,4.40
2022-09-04T04:14:52.167Z,4.10
2022-09-04T04:17:26.688Z,4.10
2022-09-04T04:20:22.364Z,4.40
2022-09-04T04:23:09.560Z,4.40
2022-09-04T04:25:52.305Z,4.20
2022-09-04T04:29:00.074Z,4.50
2022-09-04T04:32:29.194Z,4.50
2022-09-04T04:35:18.481Z,4.60
2022-09-04T04:38:21.933Z,4.00
2022-09-04T04:41:25.277Z,4.30
2022-09-04T04:44:15.980Z,4.60
2022-09-04T04:47:18.295Z,4.30
2022-09-04T04:50:17.384Z,5.20
2022-09-04T04:53:25.477Z,5.50
2022-09-04T04:56:15.698Z,5.10
2022-09-04T04:59:20.891Z,5.10
2022-09-04T05:02:24.878Z,5.10
2022-09-04T05:05:54.357Z,4.80
2022-09-04T05:08:44.118Z,5.00
2022-09-04T05:11:35.896Z,5.20
2022-09-04T05:14:26.643Z,5.30
2022-09-04T05:17:04.908Z,5.70
2022-09-04T05:19:43.182Z,5.30
2022-09-04T05:22:42.822Z,5.00
2022-09-04T05:25:16.817Z,4.60
2022-09-04T05:28:05.472Z,5.30
2022-09-04T05:31:16.396Z,5.00
2022-09-04T05:34:05.693Z,5.60
2022-09-04T05:37:14.689Z,5.30
2022-09-04T05:39:58.314Z,5.80
2022-09-04T05:42:54.786Z,5.60
2022-09-04T05:45:48.199Z,5.30
2022-09-04T05:48:40.093Z,5.10
2022-09-04T05:52:05.664Z,5.40
2022-09-04T05:54:44.139Z,5.50
2022-09-04T05:57:49.254Z,7.00
2022-09-04T06:00:22.744Z,5.90
2022-09-04T06:03:19.438Z,4.80
2022-09-04T06:06:16.098Z,5.10
2022-09-04T06:09:16.718Z,5.40
2022-09-04T06:12:41.975Z,5.70
2022-09-04T06:15:42.704Z,5.20
2022-09-04T06:18:20.261Z,4.30
2022-09-04T06:21:07.002Z,4.80
2022-09-04T06:23:47.829Z,4.90
2022-09-04T06:26:34.311Z,4.90
2022-09-04T06:29:41.982Z,4.50
2022-09-04T06:32:34.795Z,4.40
2022-09-04T06:38:24.546Z,4.80
2022-09-04T06:41:11.286Z,4.70
2022-09-04T06:43:48.808Z,5.00
2022-09-04T06:46:54.080Z,5.00
2022-09-04T06:49:35.770Z,4.80
2022-09-04T06:52:23.519Z,5.10
2022-09-04T06:55:20.226Z,5.00
2022-09-04T06:58:19.236Z,5.20
2022-09-04T07:00:59.070Z,5.50
2022-09-04T07:03:53.647Z,4.00
2022-09-04T07:07:03.157Z,3.80
2022-09-04T07:10:16.184Z,3.80
2022-09-04T07:16:26.135Z,2.70
2022-09-04T07:19:21.929Z,3.10
2022-09-04T07:22:08.636Z,4.20
2022-09-04T07:25:08.869Z,4.00
2022-09-04T07:28:10.113Z,3.70
2022-09-04T07:31:10.628Z,2.70
2022-09-04T07:33:51.616Z,2.20
2022-09-04T07:36:45.156Z,2.00
2022-09-04T07:39:19.861Z,2.10
2022-09-04T07:42:16.203Z,1.80
2022-09-04T07:44:59.286Z,2.00
2022-09-04T07:47:50.134Z,2.50
2022-09-04T07:50:58.253Z,2.20
2022-09-04T07:53:58.898Z,2.90
2022-09-04T07:56:55.142Z,2.20
2022-09-04T08:00:03.092Z,2.40
2022-09-04T08:03:12.198Z,2.30
2022-09-04T08:05:57.660Z,2.50
2022-09-04T08:08:56.765Z,2.30
2022-09-04T08:11:42.672Z,2.50
2022-09-04T08:14:32.838Z,2.60
2022-09-04T08:17:21.042Z,2.70
2022-09-04T08:20:09.711Z,2.40
2022-09-04T08:22:47.377Z,2.00
2022-09-04T08:25:44.872Z,2.40
